Time;durP1;ratioP1;P1;durP2;ratioP2;P2;SDS_P1;SDS_P2;PMS_P1;PMS_P2;Temp;Humidity;BMP_temperature;BMP_pressure;BME280_temperature;BME280_humidity;BME280_pressure;Samples;Min_cycle;Max_cycle;Signal;HPM_P1;HPM_P2
2022/05/07 00:00:54;;;;;;;11.57;6.90;;;13.40;99.90;;;;;;5049531;28;20193;-60
2022/05/07 00:03:22;;;;;;;11.63;7.73;;;13.30;99.90;;;;;;5023861;28;20305;-60
2022/05/07 00:05:54;;;;;;;10.87;7.30;;;13.30;99.90;;;;;;5027872;28;20217;-61
2022/05/07 00:08:23;;;;;;;12.53;7.83;;;13.30;99.90;;;;;;5029442;28;20200;-61
2022/05/07 00:10:52;;;;;;;9.00;7.50;;;13.30;99.90;;;;;;5025714;28;20291;-60
2022/05/07 00:13:22;;;;;;;9.37;7.77;;;13.20;99.90;;;;;;5041180;28;20201;-60
2022/05/07 00:18:36;;;;;;;9.00;7.07;;;13.10;99.90;;;;;;5023651;28;20318;-60
2022/05/07 00:21:05;;;;;;;9.00;7.00;;;13.10;99.90;;;;;;5028350;28;20193;-60
2022/05/07 00:23:33;;;;;;;9.20;6.10;;;13.10;99.90;;;;;;5034349;28;20232;-61
2022/05/07 00:26:02;;;;;;;6.10;5.47;;;13.10;99.90;;;;;;5026877;28;20215;-60
2022/05/07 00:28:32;;;;;;;8.50;5.70;;;13.10;99.90;;;;;;5026550;28;20256;-61
2022/05/07 00:31:00;;;;;;;8.97;5.73;;;13.10;99.90;;;;;;5027700;28;20665;-61
2022/05/07 00:33:29;;;;;;;5.83;4.77;;;13.10;99.90;;;;;;5024621;28;20677;-61
2022/05/07 00:35:57;;;;;;;5.80;4.90;;;13.20;99.90;;;;;;5031013;28;20205;-60
2022/05/07 00:38:26;;;;;;;7.33;4.63;;;13.20;99.90;;;;;;5008252;28;20205;-60
2022/05/07 00:40:55;;;;;;;11.17;4.77;;;13.20;99.90;;;;;;5036994;28;20203;-61
2022/05/07 00:43:23;;;;;;;7.53;4.30;;;13.30;99.90;;;;;;5024761;28;20236;-61
2022/05/07 00:45:55;;;;;;;8.33;4.87;;;13.30;99.90;;;;;;5033777;28;20207;-61
2022/05/07 00:48:25;;;;;;;5.67;4.40;;;13.30;99.90;;;;;;5026379;28;20247;-60
2022/05/07 00:53:41;;;;;;;5.07;4.40;;;13.30;99.90;;;;;;5030691;28;20284;-61
2022/05/07 00:56:09;;;;;;;9.17;4.87;;;13.30;99.90;;;;;;5025713;28;20198;-61
2022/05/07 00:58:39;;;;;;;7.43;5.00;;;13.20;99.90;;;;;;5033610;28;20223;-61
2022/05/07 01:01:09;;;;;;;5.80;4.80;;;13.20;99.90;;;;;;5029151;28;20284;-60
2022/05/07 01:03:38;;;;;;;4.77;4.40;;;13.20;99.90;;;;;;5025907;28;20275;-61
2022/05/07 01:06:09;;;;;;;5.00;4.50;;;13.20;99.90;;;;;;5025296;28;20212;-61
2022/05/07 01:08:38;;;;;;;5.73;4.37;;;13.20;99.90;;;;;;5032086;28;20280;-60
2022/05/07 01:11:06;;;;;;;5.10;4.60;;;13.10;99.90;;;;;;5046690;28;20201;-61
2022/05/07 01:13:35;;;;;;;11.00;4.70;;;13.10;99.90;;;;;;5022898;28;20192;-60
2022/05/07 01:16:05;;;;;;;5.07;4.57;;;13.10;99.90;;;;;;5034335;28;20224;-60
2022/05/07 01:18:34;;;;;;;5.63;4.60;;;13.10;99.90;;;;;;5035411;28;20239;-61
2022/05/07 01:21:09;;;;;;;5.47;4.30;;;13.10;99.90;;;;;;5047062;28;20197;-61
2022/05/07 01:23:38;;;;;;;5.27;4.53;;;13.10;99.90;;;;;;5035778;28;20205;-61
2022/05/07 01:26:06;;;;;;;8.20;4.77;;;13.00;99.90;;;;;;5030606;28;20193;-62
2022/05/07 01:28:35;;;;;;;5.60;4.70;;;13.00;99.90;;;;;;5031457;28;20590;-61
2022/05/07 01:31:04;;;;;;;7.63;4.70;;;12.90;99.90;;;;;;5039395;28;20626;-60
2022/05/07 01:33:34;;;;;;;5.60;4.90;;;12.90;99.90;;;;;;5032777;28;20193;-60
2022/05/07 01:36:03;;;;;;;8.10;4.93;;;12.80;99.90;;;;;;5027380;28;20704;-60
2022/05/07 01:38:34;;;;;;;8.97;4.63;;;12.80;99.90;;;;;;5037586;28;20713;-60
2022/05/07 01:41:03;;;;;;;6.40;5.40;;;12.70;99.90;;;;;;5031487;28;20935;-61
2022/05/07 01:43:32;;;;;;;5.97;4.80;;;12.80;99.90;;;;;;5035051;28;20937;-60
2022/05/07 01:46:01;;;;;;;7.77;5.00;;;12.70;99.90;;;;;;5018673;28;20324;-60
2022/05/07 01:48:29;;;;;;;9.03;5.17;;;12.70;99.90;;;;;;5043859;28;20645;-60
2022/05/07 01:50:58;;;;;;;7.87;5.53;;;12.70;99.90;;;;;;5035026;28;20205;-60
2022/05/07 01:53:27;;;;;;;5.47;4.77;;;12.60;99.90;;;;;;5030605;28;20228;-61
2022/05/07 01:55:56;;;;;;;7.13;4.60;;;12.60;99.90;;;;;;5030209;28;20197;-61
2022/05/07 01:58:24;;;;;;;8.10;5.03;;;12.50;99.90;;;;;;5039814;28;20220;-60
2022/05/07 02:00:53;;;;;;;8.50;5.83;;;12.50;99.90;;;;;;5027143;28;20210;-60
2022/05/07 02:03:21;;;;;;;8.63;5.73;;;12.40;99.90;;;;;;5036391;28;20224;-61
2022/05/07 02:05:49;;;;;;;5.67;5.10;;;12.40;99.90;;;;;;5032170;28;20196;-60
2022/05/07 02:08:18;;;;;;;8.50;5.43;;;12.40;99.90;;;;;;5024007;28;20228;-61
2022/05/07 02:10:46;;;;;;;8.07;5.97;;;12.40;99.90;;;;;;5030123;28;20202;-61
2022/05/07 02:13:16;;;;;;;8.60;6.10;;;12.40;99.90;;;;;;5046156;28;20259;-60
2022/05/07 02:15:45;;;;;;;9.53;5.97;;;12.40;99.90;;;;;;5027687;28;20209;-61
2022/05/07 02:18:14;;;;;;;9.20;6.00;;;12.40;99.90;;;;;;5007455;28;20242;-60
2022/05/07 02:20:42;;;;;;;9.43;6.10;;;12.40;99.90;;;;;;5012756;28;20198;-60
2022/05/07 02:23:10;;;;;;;10.50;6.40;;;12.40;99.90;;;;;;5022949;28;20271;-60
2022/05/07 02:25:39;;;;;;;10.33;6.30;;;12.40;99.90;;;;;;5013803;28;20981;-60
2022/05/07 02:28:08;;;;;;;13.80;6.40;;;12.30;99.90;;;;;;5020851;28;20198;-61
2022/05/07 02:30:37;;;;;;;9.80;6.47;;;12.30;99.90;;;;;;5015640;28;20586;-60
2022/05/07 02:33:06;;;;;;;7.17;5.93;;;12.20;99.90;;;;;;5012848;28;20575;-60
2022/05/07 02:35:34;;;;;;;11.87;6.77;;;12.10;99.90;;;;;;5022669;28;20194;-60
2022/05/07 02:38:03;;;;;;;9.87;6.83;;;12.20;99.90;;;;;;5018492;28;20654;-61
2022/05/07 02:42:33;;;;;;;9.33;6.70;;;12.10;99.90;;;;;;5015708;28;20205;-60
2022/05/07 02:43:18;;;;;;;10.67;6.73;;;12.10;99.90;;;;;;5018142;28;20723;-60
2022/05/07 02:45:48;;;;;;;11.07;7.37;;;12.10;99.90;;;;;;5020395;28;20205;-60
2022/05/07 02:48:17;;;;;;;10.13;6.80;;;12.20;99.90;;;;;;5008055;28;20206;-60
2022/05/07 02:50:45;;;;;;;13.13;7.83;;;12.20;99.90;;;;;;4995298;28;20197;-61
2022/05/07 02:53:14;;;;;;;10.33;7.33;;;12.20;99.90;;;;;;5013628;28;20218;-60
2022/05/07 02:55:42;;;;;;;11.33;8.07;;;12.20;99.90;;;;;;5014883;28;20190;-60
2022/05/07 02:58:10;;;;;;;15.93;9.50;;;12.20;99.90;;;;;;4995029;28;20205;-60
2022/05/07 03:00:38;;;;;;;12.27;8.73;;;12.20;99.90;;;;;;5024877;28;20881;-60
2022/05/07 03:03:08;;;;;;;14.97;9.13;;;12.10;99.90;;;;;;5015337;28;20201;-60
2022/05/07 03:05:37;;;;;;;14.33;9.97;;;12.10;99.90;;;;;;5012991;28;20221;-60
2022/05/07 03:08:06;;;;;;;15.17;9.53;;;12.00;99.90;;;;;;5012871;28;20268;-60
2022/05/07 03:10:35;;;;;;;16.50;10.27;;;12.00;99.90;;;;;;5017584;28;20249;-60
2022/05/07 03:13:03;;;;;;;20.47;10.63;;;12.00;99.90;;;;;;5016319;28;20200;-60
2022/05/07 03:15:32;;;;;;;24.60;11.77;;;12.00;99.90;;;;;;5016853;28;20263;-60
2022/05/07 03:18:00;;;;;;;16.17;10.67;;;12.00;99.90;;;;;;5014010;28;20646;-60
2022/05/07 03:20:30;;;;;;;19.17;10.93;;;12.00;99.90;;;;;;5013755;28;20247;-60
2022/05/07 03:23:00;;;;;;;18.30;10.57;;;11.90;99.90;;;;;;5012361;28;20539;-60
2022/05/07 03:25:28;;;;;;;20.50;11.17;;;11.90;99.90;;;;;;5020530;28;20609;-60
2022/05/07 03:27:57;;;;;;;21.87;11.77;;;11.90;99.90;;;;;;5014324;28;20571;-60
2022/05/07 03:30:26;;;;;;;18.77;11.23;;;11.90;99.90;;;;;;5025759;28;20197;-60
2022/05/07 03:32:54;;;;;;;20.93;11.13;;;11.90;99.90;;;;;;5010597;28;20686;-60
2022/05/07 03:35:23;;;;;;;23.33;12.50;;;11.80;99.90;;;;;;5014885;28;20185;-60
2022/05/07 03:37:53;;;;;;;20.93;11.80;;;11.80;99.90;;;;;;5000126;28;20272;-60
2022/05/07 03:40:21;;;;;;;19.03;12.27;;;11.80;99.90;;;;;;4992356;28;20222;-60
2022/05/07 03:42:49;;;;;;;17.10;11.23;;;11.80;99.90;;;;;;5011629;28;20219;-60
2022/05/07 03:45:18;;;;;;;27.47;12.67;;;11.80;99.90;;;;;;5019205;28;20242;-60
2022/05/07 03:47:46;;;;;;;23.43;11.83;;;11.80;99.90;;;;;;5012293;28;20202;-60
2022/05/07 03:50:14;;;;;;;21.33;12.43;;;11.80;99.90;;;;;;5003967;28;20210;-60
2022/05/07 03:55:26;;;;;;;25.47;12.93;;;11.80;99.90;;;;;;4987274;28;20663;-60
2022/05/07 03:57:55;;;;;;;25.10;12.83;;;11.80;99.90;;;;;;5017041;28;20206;-60
2022/05/07 04:00:24;;;;;;;24.67;13.53;;;11.80;99.90;;;;;;5011529;28;20214;-60
2022/05/07 04:03:12;;;;;;;24.57;14.17;;;11.80;99.90;;;;;;5008396;28;20576;-60
2022/05/07 04:05:41;;;;;;;25.83;13.43;;;11.80;99.90;;;;;;5027110;28;20722;-60
2022/05/07 04:08:10;;;;;;;28.63;14.97;;;11.80;99.90;;;;;;5018984;28;20204;-60
2022/05/07 04:10:39;;;;;;;35.33;16.57;;;11.80;99.90;;;;;;5010017;28;20206;-60
2022/05/07 04:13:08;;;;;;;30.77;16.50;;;11.80;99.90;;;;;;4999032;28;20280;-60
2022/05/07 04:15:37;;;;;;;32.07;16.23;;;11.80;99.90;;;;;;4998241;28;20580;-60
2022/05/07 04:18:06;;;;;;;29.83;16.27;;;11.90;99.90;;;;;;5017119;28;20687;-60
2022/05/07 04:20:34;;;;;;;29.07;15.23;;;11.90;99.90;;;;;;5028815;28;20205;-60
2022/05/07 04:23:03;;;;;;;35.63;16.90;;;11.90;99.90;;;;;;5030097;28;20276;-60
2022/05/07 04:25:41;;;;;;;31.23;17.20;;;11.90;99.90;;;;;;5027878;28;20252;-60
2022/05/07 04:28:10;;;;;;;32.80;17.57;;;12.00;99.90;;;;;;5029266;28;20276;-60
2022/05/07 04:30:38;;;;;;;34.40;17.47;;;12.00;99.90;;;;;;5021939;28;20193;-60
2022/05/07 04:33:07;;;;;;;33.53;18.00;;;11.90;99.90;;;;;;5026529;28;20207;-61
2022/05/07 04:35:36;;;;;;;35.70;17.73;;;12.00;99.90;;;;;;5033549;28;20204;-60
2022/05/07 04:38:05;;;;;;;32.53;18.13;;;12.00;99.90;;;;;;5028992;28;20276;-60
2022/05/07 04:40:33;;;;;;;37.43;19.10;;;12.00;99.90;;;;;;5027640;28;20588;-60
2022/05/07 04:43:02;;;;;;;39.57;19.57;;;12.00;99.90;;;;;;5006981;28;20311;-60
2022/05/07 04:45:33;;;;;;;38.10;19.30;;;12.00;99.90;;;;;;5018309;28;20210;-60
2022/05/07 04:48:02;;;;;;;42.23;18.43;;;12.00;99.90;;;;;;5010397;28;20195;-60
2022/05/07 04:50:30;;;;;;;36.60;18.73;;;12.00;99.90;;;;;;5024236;28;20212;-60
2022/05/07 04:52:58;;;;;;;39.57;18.90;;;12.00;99.90;;;;;;5016474;28;20203;-60
2022/05/07 04:55:27;;;;;;;39.67;18.30;;;12.00;99.90;;;;;;5004056;28;20298;-60
2022/05/07 04:57:55;;;;;;;40.03;19.63;;;12.00;99.90;;;;;;5036761;28;20204;-60
2022/05/07 05:00:26;;;;;;;38.27;19.03;;;12.10;99.90;;;;;;5031329;28;20567;-60
2022/05/07 05:02:54;;;;;;;38.10;19.07;;;12.10;99.90;;;;;;5018664;28;20204;-60
2022/05/07 05:05:25;;;;;;;39.23;19.43;;;12.10;99.90;;;;;;5033135;28;20224;-60
2022/05/07 05:07:53;;;;;;;42.00;20.33;;;12.10;99.90;;;;;;5031386;28;20204;-60
2022/05/07 05:10:24;;;;;;;35.33;18.90;;;12.10;99.90;;;;;;5030745;28;20206;-60
2022/05/07 05:12:52;;;;;;;35.87;19.30;;;12.20;99.90;;;;;;5025977;28;20271;-60
2022/05/07 05:15:21;;;;;;;37.13;19.93;;;12.20;99.90;;;;;;5038518;28;20232;-60
2022/05/07 05:17:51;;;;;;;36.97;19.30;;;12.20;99.90;;;;;;5034126;28;20318;-60
2022/05/07 05:20:20;;;;;;;38.23;19.03;;;12.30;99.90;;;;;;5026934;28;20206;-60
2022/05/07 05:22:49;;;;;;;40.00;20.03;;;12.30;99.90;;;;;;5029235;28;20190;-61
2022/05/07 05:25:19;;;;;;;42.03;21.00;;;12.30;99.90;;;;;;5027868;28;20208;-60
2022/05/07 05:27:48;;;;;;;39.73;19.47;;;12.40;99.90;;;;;;5033033;28;20200;-61
2022/05/07 05:30:16;;;;;;;38.97;19.57;;;12.40;99.90;;;;;;5028127;28;20788;-60
2022/05/07 05:32:44;;;;;;;36.73;20.63;;;12.50;99.90;;;;;;5031217;28;20197;-60
2022/05/07 05:35:14;;;;;;;50.33;24.77;;;12.50;99.90;;;;;;5026576;28;20620;-60
2022/05/07 05:37:42;;;;;;;51.90;26.93;;;12.50;99.90;;;;;;5027093;28;20562;-60
2022/05/07 05:40:12;;;;;;;42.63;22.53;;;12.50;99.90;;;;;;5034051;28;20194;-60
2022/05/07 05:42:41;;;;;;;43.93;23.30;;;12.60;99.90;;;;;;5020617;28;20211;-61
2022/05/07 05:45:11;;;;;;;53.50;32.23;;;12.70;99.90;;;;;;5017947;28;20221;-60
2022/05/07 05:47:39;;;;;;;49.00;29.57;;;12.80;99.90;;;;;;5037925;28;20193;-60
2022/05/07 05:50:08;;;;;;;41.90;20.83;;;12.90;99.90;;;;;;5027602;28;20192;-60
2022/05/07 05:52:38;;;;;;;35.83;19.50;;;13.00;99.90;;;;;;5033340;28;20198;-61
2022/05/07 05:55:07;;;;;;;40.57;19.97;;;13.10;99.90;;;;;;5028262;28;20197;-60
2022/05/07 05:57:35;;;;;;;47.70;19.77;;;13.20;99.90;;;;;;5038538;28;20200;-60
2022/05/07 06:00:07;;;;;;;37.83;19.30;;;13.20;99.90;;;;;;5027719;28;20224;-61
2022/05/07 06:02:35;;;;;;;33.33;18.97;;;13.30;99.90;;;;;;5025303;28;20205;-60
2022/05/07 06:05:04;;;;;;;41.93;20.27;;;13.40;99.90;;;;;;5028203;28;20225;-60
2022/05/07 06:07:33;;;;;;;37.43;19.40;;;13.40;99.90;;;;;;5044164;28;20288;-60
2022/05/07 06:10:03;;;;;;;36.90;19.23;;;13.50;99.90;;;;;;5027920;28;20254;-61
2022/05/07 06:12:32;;;;;;;38.73;19.07;;;13.60;99.90;;;;;;5035372;28;20190;-60
2022/05/07 06:15:01;;;;;;;57.67;20.13;;;13.70;99.90;;;;;;5035027;28;20220;-60
2022/05/07 06:17:29;;;;;;;35.67;18.60;;;13.80;99.90;;;;;;5030389;28;20294;-61
2022/05/07 06:19:57;;;;;;;39.80;19.50;;;13.90;99.90;;;;;;5011177;28;20193;-60
2022/05/07 06:22:27;;;;;;;35.23;19.07;;;14.00;99.90;;;;;;5028651;28;20193;-61
2022/05/07 06:27:42;;;;;;;37.47;18.73;;;14.00;99.90;;;;;;5033020;28;20272;-60
2022/05/07 06:30:11;;;;;;;39.90;19.50;;;14.10;99.90;;;;;;5025887;28;20601;-61
2022/05/07 06:32:41;;;;;;;40.57;19.50;;;14.20;99.90;;;;;;5027068;28;20622;-61
2022/05/07 06:35:11;;;;;;;32.43;18.80;;;14.30;99.90;;;;;;5029861;28;20236;-60
2022/05/07 06:37:40;;;;;;;35.80;19.30;;;14.30;99.90;;;;;;5032475;28;20264;-60
2022/05/07 06:40:09;;;;;;;37.43;18.40;;;14.30;99.90;;;;;;5028548;28;20206;-60
2022/05/07 06:42:39;;;;;;;40.57;18.27;;;14.20;99.90;;;;;;5029746;28;20205;-61
2022/05/07 06:45:09;;;;;;;36.87;18.97;;;14.20;99.90;;;;;;5034404;28;20229;-61
2022/05/07 06:47:38;;;;;;;36.40;19.17;;;14.20;99.90;;;;;;5033259;28;20194;-60
2022/05/07 06:50:07;;;;;;;35.27;18.37;;;14.40;99.90;;;;;;5032463;28;20201;-60
2022/05/07 06:52:44;;;;;;;38.30;19.20;;;14.60;99.90;;;;;;5034290;28;20200;-61
2022/05/07 06:55:16;;;;;;;36.67;19.67;;;14.80;99.90;;;;;;5022499;28;20669;-61
2022/05/07 06:57:45;;;;;;;34.90;18.63;;;15.00;99.90;;;;;;5039577;28;20212;-61
2022/05/07 07:00:35;;;;;;;36.53;20.67;;;15.00;99.90;;;;;;5004253;28;20201;-61
2022/05/07 07:03:03;;;;;;;39.23;19.17;;;15.20;99.90;;;;;;5032803;28;20203;-61
2022/05/07 07:05:31;;;;;;;39.07;18.90;;;15.40;99.90;;;;;;5041791;28;20218;-61
2022/05/07 07:08:00;;;;;;;31.53;17.70;;;15.70;99.90;;;;;;5004828;28;20197;-61
2022/05/07 07:10:28;;;;;;;40.53;19.30;;;15.60;99.90;;;;;;5039088;28;20219;-61
2022/05/07 07:12:57;;;;;;;30.40;18.10;;;15.60;99.90;;;;;;5033188;28;20205;-61
2022/05/07 07:15:25;;;;;;;36.50;18.83;;;15.70;99.90;;;;;;5007917;28;20242;-61
2022/05/07 07:17:55;;;;;;;32.37;17.57;;;15.80;99.90;;;;;;5011317;28;20317;-61
2022/05/07 07:20:27;;;;;;;34.33;17.97;;;16.00;99.90;;;;;;5028888;28;20197;-61
2022/05/07 07:22:55;;;;;;;32.13;17.80;;;16.40;99.90;;;;;;5035131;28;20917;-61
2022/05/07 07:25:23;;;;;;;34.87;17.70;;;16.50;99.90;;;;;;5033093;28;20195;-61
2022/05/07 07:27:52;;;;;;;32.67;18.37;;;16.70;99.90;;;;;;5049809;28;20190;-61
2022/05/07 07:30:20;;;;;;;37.83;17.87;;;16.80;99.90;;;;;;5026754;28;20767;-61
2022/05/07 07:32:48;;;;;;;35.27;17.23;;;16.80;99.90;;;;;;5036585;28;20193;-61
2022/05/07 07:35:18;;;;;;;31.00;15.93;;;16.80;99.90;;;;;;5041380;28;20625;-61
2022/05/07 07:37:47;;;;;;;28.20;15.73;;;16.70;99.90;;;;;;5034428;28;20277;-61
2022/05/07 07:40:16;;;;;;;34.13;16.57;;;16.70;99.90;;;;;;5017967;28;20195;-61
2022/05/07 07:42:44;;;;;;;30.73;17.20;;;16.70;99.90;;;;;;5035270;28;20700;-61
2022/05/07 07:48:03;;;;;;;33.50;17.20;;;16.60;99.90;;;;;;5038826;28;20276;-61
2022/05/07 07:50:34;;;;;;;30.57;17.03;;;16.60;99.90;;;;;;5042511;28;20639;-61
2022/05/07 07:53:04;;;;;;;34.17;18.30;;;16.70;99.90;;;;;;5039007;28;20557;-61
2022/05/07 07:55:34;;;;;;;30.20;16.73;;;16.80;99.90;;;;;;5036483;28;20723;-61
2022/05/07 07:58:04;;;;;;;36.03;17.57;;;16.60;99.90;;;;;;5036739;28;20253;-61
2022/05/07 08:00:35;;;;;;;37.10;18.40;;;16.40;99.90;;;;;;5033012;28;20197;-61
2022/05/07 08:03:05;;;;;;;37.33;17.90;;;16.30;99.90;;;;;;5039123;28;20194;-61
2022/05/07 08:05:37;;;;;;;34.47;17.63;;;16.40;99.90;;;;;;5009237;28;20198;-61
2022/05/07 08:13:43;;;;;;;30.50;17.23;;;17.20;99.90;;;;;;5049435;28;20684;-61
2022/05/07 08:16:12;;;;;;;32.73;17.03;;;17.70;99.90;;;;;;5037311;28;20219;-61
2022/05/07 08:18:42;;;;;;;40.47;17.77;;;18.50;99.90;;;;;;5040804;28;20264;-62
2022/05/07 08:21:12;;;;;;;32.83;16.40;;;19.00;99.90;;;;;;5045770;28;20193;-62
2022/05/07 08:23:41;;;;;;;38.57;17.33;;;19.90;99.90;;;;;;5011363;28;20624;-62
2022/05/07 08:26:11;;;;;;;32.30;16.40;;;19.90;99.90;;;;;;5049207;28;20289;-62
2022/05/07 08:28:41;;;;;;;38.87;16.23;;;19.70;99.90;;;;;;5046037;28;20202;-62
2022/05/07 08:31:10;;;;;;;26.47;14.03;;;20.10;99.90;;;;;;5043914;28;20244;-62
2022/05/07 08:33:41;;;;;;;30.60;16.60;;;20.40;99.90;;;;;;5038572;28;20217;-62
2022/05/07 08:36:12;;;;;;;31.80;16.67;;;20.30;99.90;;;;;;5016129;28;20196;-62
2022/05/07 08:38:42;;;;;;;26.90;15.30;;;20.00;99.90;;;;;;5030625;28;20206;-62
2022/05/07 08:41:11;;;;;;;30.10;15.67;;;19.70;99.90;;;;;;5030196;28;20210;-62
2022/05/07 08:43:43;;;;;;;28.87;15.10;;;19.40;99.90;;;;;;5044854;28;20305;-61
2022/05/07 08:46:13;;;;;;;30.53;16.27;;;19.30;99.90;;;;;;5036349;28;20208;-62
2022/05/07 08:48:45;;;;;;;29.83;15.50;;;19.30;99.90;;;;;;5041376;28;20201;-61
2022/05/07 08:51:16;;;;;;;25.27;14.67;;;19.50;99.90;;;;;;5033992;28;20209;-62
2022/05/07 08:53:48;;;;;;;26.73;16.00;;;19.40;99.90;;;;;;5031084;28;20288;-62
2022/05/07 08:56:17;;;;;;;29.17;15.77;;;19.40;99.90;;;;;;5038390;28;20255;-61
2022/05/07 08:58:49;;;;;;;27.00;14.57;;;19.90;99.90;;;;;;5037959;28;20205;-62
2022/05/07 09:01:18;;;;;;;25.60;15.23;;;20.50;99.90;;;;;;5028611;28;20388;-62
2022/05/07 09:03:48;;;;;;;26.47;15.10;;;20.60;99.90;;;;;;5031554;28;20207;-62
2022/05/07 09:06:21;;;;;;;31.17;15.03;;;20.40;99.90;;;;;;5028324;28;20201;-63
2022/05/07 09:08:50;;;;;;;26.60;14.20;;;20.30;99.90;;;;;;5038879;28;20195;-62
2022/05/07 09:11:20;;;;;;;28.50;15.57;;;20.60;99.90;;;;;;5028739;28;20551;-63
2022/05/07 09:13:59;;;;;;;21.43;13.70;;;21.30;99.90;;;;;;5039222;28;20554;-62
2022/05/07 09:16:37;;;;;;;25.47;14.60;;;21.90;99.90;;;;;;5026361;28;20936;-63
2022/05/07 09:19:06;;;;;;;24.45;13.55;;;22.80;99.90;;;;;;5042509;28;20282;-63
2022/05/07 09:21:36;;;;;;;21.70;12.68;;;22.80;99.90;;;;;;5026701;28;20565;-60
2022/05/07 09:24:06;;;;;;;19.23;13.20;;;23.30;99.90;;;;;;5034940;28;20673;-60
2022/05/07 09:26:39;;;;;;;15.80;12.15;;;23.70;99.90;;;;;;5024662;28;20253;-60
2022/05/07 09:29:09;;;;;;;20.42;12.70;;;24.50;99.90;;;;;;5008767;28;20200;-60
2022/05/07 09:31:41;;;;;;;17.23;12.40;;;24.70;99.90;;;;;;5037667;28;20211;-60
2022/05/07 09:37:02;;;;;;;17.65;11.88;;;25.70;99.90;;;;;;5034795;28;20586;-60
2022/05/07 09:39:35;;;;;;;20.33;11.98;;;26.20;99.90;;;;;;5015759;28;20288;-59
2022/05/07 09:42:04;;;;;;;17.50;12.60;;;25.30;99.90;;;;;;5018090;28;20218;-59
2022/05/07 09:44:33;;;;;;;21.08;12.25;;;24.50;99.90;;;;;;5033417;28;20315;-62
2022/05/07 09:47:01;;;;;;;20.07;12.33;;;23.40;99.90;;;;;;5044204;28;20650;-62
2022/05/07 09:49:33;;;;;;;16.33;11.83;;;22.80;99.90;;;;;;5026207;28;20198;-62
2022/05/07 09:52:05;;;;;;;24.33;13.37;;;22.40;99.90;;;;;;5033465;28;20202;-61
2022/05/07 09:57:33;;;;;;;18.10;11.50;;;22.10;99.90;;;;;;5045012;28;20203;-61
2022/05/07 10:00:07;;;;;;;20.63;11.77;;;21.90;99.90;;;;;;5015292;28;20209;-61
2022/05/07 10:02:54;;;;;;;18.53;12.20;;;21.70;99.90;;;;;;5018753;28;20214;-61
2022/05/07 10:05:44;;;;;;;17.27;11.27;;;21.80;99.90;;;;;;5014367;28;20195;-61
2022/05/07 10:08:39;;;;;;;18.63;11.30;;;21.70;99.90;;;;;;5020045;28;20610;-62
2022/05/07 10:11:09;;;;;;;16.07;10.67;;;21.70;99.90;;;;;;5011709;28;20196;-62
2022/05/07 10:13:38;;;;;;;16.37;10.73;;;21.90;99.90;;;;;;5029804;28;20547;-61
2022/05/07 10:16:07;;;;;;;18.53;10.73;;;22.40;99.90;;;;;;5048585;28;20189;-62
2022/05/07 10:18:38;;;;;;;15.73;11.07;;;22.60;99.90;;;;;;5044480;28;20230;-61
2022/05/07 10:21:15;;;;;;;19.33;10.70;;;22.90;99.90;;;;;;5026043;28;20206;-62
2022/05/07 10:23:53;;;;;;;20.87;12.10;;;23.70;99.90;;;;;;5042372;28;20223;-62
2022/05/07 10:26:24;;;;;;;22.70;12.50;;;24.70;99.90;;;;;;5029407;28;20265;-62
2022/05/07 10:28:52;;;;;;;17.45;12.55;;;25.30;99.90;;;;;;5026245;28;20264;-62
2022/05/07 10:31:22;;;;;;;18.00;12.75;;;25.70;99.90;;;;;;5030600;28;20206;-62
2022/05/07 10:33:53;;;;;;;19.75;13.77;;;25.50;99.90;;;;;;5031418;28;20222;-62
2022/05/07 10:36:21;;;;;;;19.97;12.77;;;25.50;99.90;;;;;;5014739;28;20229;-62
2022/05/07 10:38:51;;;;;;;22.55;12.10;;;25.20;99.90;;;;;;5030105;28;20194;-62
2022/05/07 10:41:23;;;;;;;17.98;12.45;;;25.50;99.90;;;;;;5030388;28;20225;-62
2022/05/07 10:44:06;;;;;;;21.30;11.60;;;25.70;99.90;;;;;;5031417;28;20226;-63
2022/05/07 10:46:40;;;;;;;18.15;13.15;;;26.20;99.90;;;;;;5026273;28;20210;-62
2022/05/07 10:49:09;;;;;;;19.45;14.02;;;26.60;99.90;;;;;;5029852;28;20215;-63
2022/05/07 10:51:39;;;;;;;20.33;12.57;;;26.90;99.90;;;;;;5045789;28;20203;-62
2022/05/07 10:54:21;;;;;;;22.83;17.80;;;26.70;99.90;;;;;;5026595;28;20224;-62
2022/05/07 10:56:52;;;;;;;32.67;22.83;;;26.30;99.90;;;;;;5029505;28;20236;-62
2022/05/07 10:59:21;;;;;;;33.37;22.53;;;25.20;99.90;;;;;;5028645;28;20252;-62
2022/05/07 11:01:50;;;;;;;28.50;23.33;;;24.50;99.90;;;;;;5039531;28;20737;-62
2022/05/07 11:04:22;;;;;;;26.60;22.00;;;24.00;99.90;;;;;;5041395;28;20205;-62
2022/05/07 11:06:53;;;;;;;29.30;21.73;;;24.00;99.90;;;;;;5039220;28;20690;-62
2022/05/07 11:09:24;;;;;;;24.00;19.97;;;24.30;99.90;;;;;;5030174;28;20217;-62
2022/05/07 11:11:55;;;;;;;21.33;17.93;;;24.90;99.90;;;;;;5032707;28;20221;-62
2022/05/07 11:14:25;;;;;;;26.42;18.45;;;25.50;99.90;;;;;;5030940;28;20291;-63
2022/05/07 11:16:55;;;;;;;19.33;17.17;;;25.90;99.90;;;;;;5024106;28;20281;-62
2022/05/07 11:19:26;;;;;;;21.53;17.43;;;25.60;99.90;;;;;;5022918;28;20231;-62
2022/05/07 11:21:55;;;;;;;17.10;15.20;;;25.00;99.90;;;;;;5025788;28;20193;-62
2022/05/07 11:24:26;;;;;;;17.83;14.17;;;24.90;99.90;;;;;;5030780;28;20521;-62
2022/05/07 11:26:56;;;;;;;16.70;14.07;;;24.60;99.90;;;;;;5029520;28;20745;-62
2022/05/07 11:29:26;;;;;;;15.93;14.30;;;24.50;99.90;;;;;;5039030;28;20651;-62
2022/05/07 11:31:55;;;;;;;17.03;15.10;;;24.20;99.90;;;;;;5028551;28;20559;-62
2022/05/07 11:34:32;;;;;;;17.97;15.27;;;24.30;99.90;;;;;;5035413;28;20271;-61
2022/05/07 11:37:14;;;;;;;17.50;14.43;;;24.90;99.90;;;;;;5029094;28;20340;-61
2022/05/07 11:39:52;;;;;;;26.53;16.53;;;25.30;99.90;;;;;;5028421;28;20225;-61
2022/05/07 11:42:34;;;;;;;18.83;16.87;;;24.90;99.90;;;;;;5025895;28;20228;-61
2022/05/07 11:45:27;;;;;;;22.80;19.00;;;24.10;99.90;;;;;;5026041;28;20549;-61
2022/05/07 11:47:59;;;;;;;26.00;20.27;;;23.50;99.90;;;;;;5026565;28;20275;-61
2022/05/07 11:50:30;;;;;;;24.17;21.47;;;23.10;99.90;;;;;;5032282;28;20599;-61
2022/05/07 11:53:10;;;;;;;27.57;22.00;;;22.70;99.90;;;;;;5029465;28;20201;-61
2022/05/07 11:55:41;;;;;;;27.77;21.63;;;22.30;99.90;;;;;;5030611;28;20680;-61
2022/05/07 11:58:14;;;;;;;21.80;17.13;;;22.00;99.90;;;;;;5012320;28;20225;-60
2022/05/07 12:00:44;;;;;;;19.70;16.47;;;21.80;99.90;;;;;;5028944;28;20209;-61
2022/05/07 12:03:17;;;;;;;19.03;16.07;;;21.50;99.90;;;;;;5031550;28;20197;-60
2022/05/07 12:05:48;;;;;;;22.63;17.67;;;21.40;99.90;;;;;;5031263;28;20596;-61
2022/05/07 12:08:18;;;;;;;20.60;17.50;;;21.20;99.90;;;;;;5029109;28;20613;-61
2022/05/07 12:10:50;;;;;;;24.63;17.87;;;21.10;99.90;;;;;;5027881;28;20206;-61
2022/05/07 12:13:20;;;;;;;21.00;16.23;;;21.00;99.90;;;;;;5031929;28;20218;-61
2022/05/07 12:18:37;;;;;;;19.90;16.53;;;21.00;99.90;;;;;;5027878;28;20239;-60
2022/05/07 12:21:05;;;;;;;22.07;18.63;;;21.00;99.90;;;;;;5027839;28;20316;-61
2022/05/07 12:31:55;;;;;;;18.67;16.10;;;20.70;99.90;;;;;;5020062;28;20201;-60
2022/05/07 12:34:30;;;;;;;17.53;14.40;;;20.70;99.90;;;;;;5027498;28;20659;-62
2022/05/07 12:36:59;;;;;;;16.80;12.93;;;20.70;99.90;;;;;;5024932;28;20224;-61
2022/05/07 12:39:27;;;;;;;18.00;12.77;;;20.70;99.90;;;;;;5028248;28;20201;-61
2022/05/07 12:42:05;;;;;;;14.63;11.27;;;20.60;99.90;;;;;;5027099;28;20271;-61
2022/05/07 12:44:33;;;;;;;17.10;12.30;;;20.60;99.90;;;;;;5028049;28;20196;-61
2022/05/07 12:47:01;;;;;;;13.77;12.30;;;20.70;99.90;;;;;;5026047;28;20220;-61
2022/05/07 12:49:30;;;;;;;16.80;12.57;;;20.70;99.90;;;;;;5023397;28;20264;-61
2022/05/07 12:51:58;;;;;;;14.73;12.43;;;20.70;99.90;;;;;;5025867;28;20231;-61
2022/05/07 12:54:26;;;;;;;13.40;12.00;;;20.80;99.90;;;;;;5032112;28;20225;-61
2022/05/07 12:56:56;;;;;;;13.00;11.60;;;20.80;99.90;;;;;;5027083;28;20217;-61
2022/05/07 12:59:25;;;;;;;14.33;11.83;;;20.90;99.90;;;;;;5020389;28;20197;-61
2022/05/07 13:01:53;;;;;;;15.63;10.90;;;20.80;99.90;;;;;;5028476;28;20268;-61
2022/05/07 13:04:24;;;;;;;12.10;10.50;;;20.70;99.90;;;;;;5028085;28;20201;-61
2022/05/07 13:06:53;;;;;;;12.67;10.83;;;20.70;99.90;;;;;;5032717;28;20222;-62
2022/05/07 13:09:21;;;;;;;14.23;10.57;;;20.70;99.90;;;;;;5030000;28;20253;-61
2022/05/07 13:12:13;;;;;;;13.60;11.73;;;20.80;99.90;;;;;;5026271;28;20208;-61
2022/05/07 13:14:42;;;;;;;14.40;11.10;;;20.80;99.90;;;;;;5031399;28;20212;-61
2022/05/07 13:17:10;;;;;;;14.27;11.90;;;20.70;99.90;;;;;;5028598;28;20197;-62
2022/05/07 13:19:38;;;;;;;13.47;11.93;;;20.80;99.90;;;;;;5034860;28;20204;-62
2022/05/07 13:22:07;;;;;;;13.93;11.83;;;21.00;99.90;;;;;;5028297;28;20216;-62